sensor_id;sensor_type;location;lat;lon;timestamp;P1;durP1;ratioP1;P2;durP2;ratioP2
49978;SDS011;35869;50.990;6.962;2023-01-04T00:04:46;4.70;;;1.65;;
49978;SDS011;35869;50.990;6.962;2023-01-04T00:09:47;2.10;;;1.67;;
49978;SDS011;35869;50.990;6.962;2023-01-04T00:14:47;6.22;;;1.73;;
49978;SDS011;35869;50.990;6.962;2023-01-04T00:19:47;5.40;;;1.67;;
49978;SDS011;35869;50.990;6.962;2023-01-04T00:24:47;3.13;;;1.67;;
49978;SDS011;35869;50.990;6.962;2023-01-04T00:29:48;3.13;;;1.70;;
49978;SDS011;35869;50.990;6.962;2023-01-04T00:34:48;2.55;;;1.00;;
49978;SDS011;35869;50.990;6.962;2023-01-04T00:39:48;2.53;;;1.45;;
49978;SDS011;35869;50.990;6.962;2023-01-04T00:44:48;3.47;;;1.23;;
49978;SDS011;35869;50.990;6.962;2023-01-04T00:49:48;2.92;;;1.10;;
49978;SDS011;35869;50.990;6.962;2023-01-04T00:54:49;4.03;;;1.90;;
49978;SDS011;35869;50.990;6.962;2023-01-04T00:59:49;7.22;;;1.70;;
49978;SDS011;35869;50.990;6.962;2023-01-04T01:04:49;5.20;;;1.48;;
49978;SDS011;35869;50.990;6.962;2023-01-04T01:09:49;2.08;;;1.50;;
49978;SDS011;35869;50.990;6.962;2023-01-04T01:14:49;3.00;;;1.75;;
49978;SDS011;35869;50.990;6.962;2023-01-04T01:19:50;2.20;;;1.70;;
49978;SDS011;35869;50.990;6.962;2023-01-04T01:24:50;3.50;;;1.95;;
49978;SDS011;35869;50.990;6.962;2023-01-04T01:29:50;6.20;;;2.10;;
49978;SDS011;35869;50.990;6.962;2023-01-04T01:34:50;7.00;;;2.20;;
49978;SDS011;35869;50.990;6.962;2023-01-04T01:39:50;2.70;;;1.65;;
49978;SDS011;35869;50.990;6.962;2023-01-04T01:44:53;3.83;;;2.13;;
49978;SDS011;35869;50.990;6.962;2023-01-04T01:49:57;4.78;;;1.80;;
49978;SDS011;35869;50.990;6.962;2023-01-04T01:55:00;11.63;;;2.97;;
49978;SDS011;35869;50.990;6.962;2023-01-04T02:00:05;4.88;;;1.92;;
49978;SDS011;35869;50.990;6.962;2023-01-04T02:05:08;7.50;;;2.15;;
49978;SDS011;35869;50.990;6.962;2023-01-04T02:10:09;5.07;;;2.10;;
49978;SDS011;35869;50.990;6.962;2023-01-04T02:41:46;3.75;;;2.17;;
49978;SDS011;35869;50.990;6.962;2023-01-04T02:46:58;3.10;;;1.42;;
49978;SDS011;35869;50.990;6.962;2023-01-04T02:52:00;3.10;;;1.92;;
49978;SDS011;35869;50.990;6.962;2023-01-04T03:12:42;2.67;;;1.20;;
49978;SDS011;35869;50.990;6.962;2023-01-04T03:17:51;3.13;;;1.25;;
49978;SDS011;35869;50.990;6.962;2023-01-04T03:22:59;1.13;;;1.02;;
49978;SDS011;35869;50.990;6.962;2023-01-04T03:28:03;2.33;;;0.93;;
49978;SDS011;35869;50.990;6.962;2023-01-04T03:33:06;5.20;;;0.70;;
49978;SDS011;35869;50.990;6.962;2023-01-04T03:38:09;1.80;;;0.95;;
49978;SDS011;35869;50.990;6.962;2023-01-04T03:43:16;3.35;;;1.02;;
49978;SDS011;35869;50.990;6.962;2023-01-04T03:48:27;1.23;;;0.55;;
49978;SDS011;35869;50.990;6.962;2023-01-04T03:53:35;0.60;;;0.60;;
49978;SDS011;35869;50.990;6.962;2023-01-04T03:58:39;1.42;;;0.70;;
49978;SDS011;35869;50.990;6.962;2023-01-04T04:03:39;1.60;;;0.50;;
49978;SDS011;35869;50.990;6.962;2023-01-04T04:08:39;1.33;;;0.40;;
49978;SDS011;35869;50.990;6.962;2023-01-04T04:13:40;0.40;;;0.40;;
49978;SDS011;35869;50.990;6.962;2023-01-04T04:18:40;0.65;;;0.30;;
49978;SDS011;35869;50.990;6.962;2023-01-04T04:23:40;2.00;;;0.45;;
49978;SDS011;35869;50.990;6.962;2023-01-04T04:28:41;2.42;;;0.50;;
49978;SDS011;35869;50.990;6.962;2023-01-04T04:33:42;0.80;;;0.40;;
49978;SDS011;35869;50.990;6.962;2023-01-04T04:38:42;0.80;;;0.40;;
49978;SDS011;35869;50.990;6.962;2023-01-04T04:43:42;0.63;;;0.40;;
49978;SDS011;35869;50.990;6.962;2023-01-04T04:48:42;0.75;;;0.35;;
49978;SDS011;35869;50.990;6.962;2023-01-04T04:53:42;0.40;;;0.38;;
49978;SDS011;35869;50.990;6.962;2023-01-04T04:58:43;0.70;;;0.40;;
49978;SDS011;35869;50.990;6.962;2023-01-04T05:03:43;0.73;;;0.25;;
49978;SDS011;35869;50.990;6.962;2023-01-04T05:08:43;0.50;;;0.35;;
49978;SDS011;35869;50.990;6.962;2023-01-04T05:13:43;0.55;;;0.20;;
49978;SDS011;35869;50.990;6.962;2023-01-04T05:18:43;0.30;;;0.20;;
49978;SDS011;35869;50.990;6.962;2023-01-04T05:23:44;0.30;;;0.30;;
49978;SDS011;35869;50.990;6.962;2023-01-04T05:28:44;0.65;;;0.30;;
49978;SDS011;35869;50.990;6.962;2023-01-04T05:33:44;0.13;;;0.13;;
49978;SDS011;35869;50.990;6.962;2023-01-04T05:38:44;0.35;;;0.10;;
49978;SDS011;35869;50.990;6.962;2023-01-04T05:43:44;1.63;;;0.30;;
49978;SDS011;35869;50.990;6.962;2023-01-04T05:48:45;0.20;;;0.20;;
49978;SDS011;35869;50.990;6.962;2023-01-04T05:53:45;1.17;;;0.13;;
49978;SDS011;35869;50.990;6.962;2023-01-04T05:58:45;0.13;;;0.10;;
49978;SDS011;35869;50.990;6.962;2023-01-04T06:03:45;0.30;;;0.30;;
49978;SDS011;35869;50.990;6.962;2023-01-04T06:08:45;0.45;;;0.22;;
49978;SDS011;35869;50.990;6.962;2023-01-04T06:13:46;0.75;;;0.40;;
49978;SDS011;35869;50.990;6.962;2023-01-04T06:18:46;0.20;;;0.10;;
49978;SDS011;35869;50.990;6.962;2023-01-04T06:23:46;0.17;;;0.17;;
49978;SDS011;35869;50.990;6.962;2023-01-04T06:28:46;0.30;;;0.13;;
49978;SDS011;35869;50.990;6.962;2023-01-04T06:33:47;1.17;;;0.20;;
49978;SDS011;35869;50.990;6.962;2023-01-04T06:38:47;0.17;;;0.17;;
49978;SDS011;35869;50.990;6.962;2023-01-04T06:43:47;0.93;;;0.30;;
49978;SDS011;35869;50.990;6.962;2023-01-04T06:48:48;0.10;;;0.10;;
49978;SDS011;35869;50.990;6.962;2023-01-04T06:53:48;1.20;;;0.30;;
49978;SDS011;35869;50.990;6.962;2023-01-04T06:58:49;0.17;;;0.13;;
49978;SDS011;35869;50.990;6.962;2023-01-04T07:03:49;0.60;;;0.20;;
49978;SDS011;35869;50.990;6.962;2023-01-04T07:08:49;1.20;;;0.28;;
49978;SDS011;35869;50.990;6.962;2023-01-04T07:13:49;0.22;;;0.13;;
49978;SDS011;35869;50.990;6.962;2023-01-04T07:18:50;0.30;;;0.20;;
49978;SDS011;35869;50.990;6.962;2023-01-04T07:23:50;0.63;;;0.22;;
49978;SDS011;35869;50.990;6.962;2023-01-04T07:28:50;0.20;;;0.17;;
49978;SDS011;35869;50.990;6.962;2023-01-04T07:33:50;1.63;;;0.30;;
49978;SDS011;35869;50.990;6.962;2023-01-04T07:38:51;0.20;;;0.20;;
49978;SDS011;35869;50.990;6.962;2023-01-04T07:43:51;1.30;;;0.55;;
49978;SDS011;35869;50.990;6.962;2023-01-04T07:48:51;1.45;;;0.30;;
49978;SDS011;35869;50.990;6.962;2023-01-04T07:53:51;0.63;;;0.40;;
49978;SDS011;35869;50.990;6.962;2023-01-04T07:58:52;1.33;;;0.30;;
49978;SDS011;35869;50.990;6.962;2023-01-04T08:03:52;2.08;;;0.20;;
49978;SDS011;35869;50.990;6.962;2023-01-04T08:08:52;0.73;;;0.30;;
49978;SDS011;35869;50.990;6.962;2023-01-04T08:13:52;2.42;;;0.52;;
49978;SDS011;35869;50.990;6.962;2023-01-04T08:18:53;0.20;;;0.20;;
49978;SDS011;35869;50.990;6.962;2023-01-04T08:23:54;0.80;;;0.20;;
49978;SDS011;35869;50.990;6.962;2023-01-04T08:28:55;0.73;;;0.20;;
49978;SDS011;35869;50.990;6.962;2023-01-04T08:33:56;0.30;;;0.30;;
49978;SDS011;35869;50.990;6.962;2023-01-04T08:38:58;0.40;;;0.32;;
49978;SDS011;35869;50.990;6.962;2023-01-04T08:44:00;0.47;;;0.38;;
49978;SDS011;35869;50.990;6.962;2023-01-04T08:49:00;1.10;;;0.30;;
49978;SDS011;35869;50.990;6.962;2023-01-04T08:54:00;0.70;;;0.47;;
49978;SDS011;35869;50.990;6.962;2023-01-04T08:59:01;2.05;;;0.63;;
49978;SDS011;35869;50.990;6.962;2023-01-04T09:04:01;0.47;;;0.40;;
49978;SDS011;35869;50.990;6.962;2023-01-04T09:09:01;0.20;;;0.20;;
49978;SDS011;35869;50.990;6.962;2023-01-04T09:14:02;0.38;;;0.38;;
49978;SDS011;35869;50.990;6.962;2023-01-04T09:19:02;0.20;;;0.20;;
49978;SDS011;35869;50.990;6.962;2023-01-04T09:24:03;0.35;;;0.30;;
49978;SDS011;35869;50.990;6.962;2023-01-04T09:29:03;0.73;;;0.40;;
49978;SDS011;35869;50.990;6.962;2023-01-04T09:34:03;0.40;;;0.38;;
49978;SDS011;35869;50.990;6.962;2023-01-04T09:39:04;0.38;;;0.32;;
49978;SDS011;35869;50.990;6.962;2023-01-04T09:59:44;0.20;;;0.20;;
49978;SDS011;35869;50.990;6.962;2023-01-04T10:04:50;0.30;;;0.25;;
49978;SDS011;35869;50.990;6.962;2023-01-04T10:09:50;0.93;;;0.20;;
49978;SDS011;35869;50.990;6.962;2023-01-04T10:14:57;0.75;;;0.30;;
49978;SDS011;35869;50.990;6.962;2023-01-04T10:20:52;0.73;;;0.30;;
49978;SDS011;35869;50.990;6.962;2023-01-04T10:25:55;0.63;;;0.50;;
49978;SDS011;35869;50.990;6.962;2023-01-04T10:36:27;0.32;;;0.30;;
49978;SDS011;35869;50.990;6.962;2023-01-04T10:41:33;0.77;;;0.70;;
49978;SDS011;35869;50.990;6.962;2023-01-04T10:46:50;1.02;;;0.50;;
49978;SDS011;35869;50.990;6.962;2023-01-04T10:51:58;1.00;;;0.38;;
49978;SDS011;35869;50.990;6.962;2023-01-04T10:57:21;0.70;;;0.40;;
49978;SDS011;35869;50.990;6.962;2023-01-04T11:02:43;1.55;;;0.82;;
49978;SDS011;35869;50.990;6.962;2023-01-04T11:08:07;1.70;;;0.80;;
49978;SDS011;35869;50.990;6.962;2023-01-04T11:13:09;2.42;;;0.82;;
49978;SDS011;35869;50.990;6.962;2023-01-04T11:18:12;1.00;;;0.60;;
49978;SDS011;35869;50.990;6.962;2023-01-04T11:23:15;0.60;;;0.40;;
49978;SDS011;35869;50.990;6.962;2023-01-04T11:28:18;2.13;;;0.98;;
49978;SDS011;35869;50.990;6.962;2023-01-04T11:33:24;3.92;;;0.95;;
49978;SDS011;35869;50.990;6.962;2023-01-04T11:38:26;0.53;;;0.50;;
49978;SDS011;35869;50.990;6.962;2023-01-04T11:43:28;0.70;;;0.70;;
49978;SDS011;35869;50.990;6.962;2023-01-04T11:48:40;1.25;;;0.80;;
49978;SDS011;35869;50.990;6.962;2023-01-04T11:53:42;1.02;;;0.45;;
49978;SDS011;35869;50.990;6.962;2023-01-04T11:58:43;1.27;;;0.80;;
49978;SDS011;35869;50.990;6.962;2023-01-04T12:04:01;1.60;;;0.70;;
49978;SDS011;35869;50.990;6.962;2023-01-04T12:09:03;0.95;;;0.50;;
49978;SDS011;35869;50.990;6.962;2023-01-04T12:14:03;2.35;;;0.77;;
49978;SDS011;35869;50.990;6.962;2023-01-04T12:19:11;1.55;;;0.50;;
49978;SDS011;35869;50.990;6.962;2023-01-04T12:24:15;0.73;;;0.40;;
49978;SDS011;35869;50.990;6.962;2023-01-04T12:49:50;0.33;;;0.20;;
49978;SDS011;35869;50.990;6.962;2023-01-04T12:55:02;0.28;;;0.28;;
49978;SDS011;35869;50.990;6.962;2023-01-04T13:00:14;0.57;;;0.38;;
49978;SDS011;35869;50.990;6.962;2023-01-04T13:21:17;0.20;;;0.20;;
49978;SDS011;35869;50.990;6.962;2023-01-04T13:26:30;0.15;;;0.15;;
49978;SDS011;35869;50.990;6.962;2023-01-04T13:31:41;1.00;;;0.20;;
49978;SDS011;35869;50.990;6.962;2023-01-04T13:37:01;0.30;;;0.30;;
49978;SDS011;35869;50.990;6.962;2023-01-04T13:42:06;1.00;;;0.60;;
49978;SDS011;35869;50.990;6.962;2023-01-04T13:47:14;1.08;;;0.93;;
49978;SDS011;35869;50.990;6.962;2023-01-04T13:52:33;0.10;;;0.10;;
49978;SDS011;35869;50.990;6.962;2023-01-04T13:57:34;1.73;;;0.40;;
49978;SDS011;35869;50.990;6.962;2023-01-04T14:02:34;0.60;;;0.30;;
49978;SDS011;35869;50.990;6.962;2023-01-04T14:07:34;0.35;;;0.20;;
49978;SDS011;35869;50.990;6.962;2023-01-04T14:12:36;0.75;;;0.50;;
49978;SDS011;35869;50.990;6.962;2023-01-04T14:17:45;0.13;;;0.13;;
49978;SDS011;35869;50.990;6.962;2023-01-04T14:27:47;0.43;;;0.13;;
49978;SDS011;35869;50.990;6.962;2023-01-04T14:32:57;0.28;;;0.20;;
49978;SDS011;35869;50.990;6.962;2023-01-04T14:38:02;1.27;;;0.10;;
49978;SDS011;35869;50.990;6.962;2023-01-04T14:48:34;0.50;;;0.50;;
49978;SDS011;35869;50.990;6.962;2023-01-04T14:53:34;1.10;;;0.37;;
49978;SDS011;35869;50.990;6.962;2023-01-04T14:58:34;0.38;;;0.20;;
49978;SDS011;35869;50.990;6.962;2023-01-04T15:03:35;0.10;;;0.10;;
49978;SDS011;35869;50.990;6.962;2023-01-04T15:08:35;0.20;;;0.20;;
49978;SDS011;35869;50.990;6.962;2023-01-04T15:13:36;1.83;;;0.30;;
49978;SDS011;35869;50.990;6.962;2023-01-04T15:18:36;0.10;;;0.10;;
49978;SDS011;35869;50.990;6.962;2023-01-04T15:23:36;0.40;;;0.30;;
49978;SDS011;35869;50.990;6.962;2023-01-04T15:28:37;1.95;;;0.30;;
49978;SDS011;35869;50.990;6.962;2023-01-04T15:38:38;0.28;;;0.20;;
49978;SDS011;35869;50.990;6.962;2023-01-04T15:43:38;0.20;;;0.20;;
49978;SDS011;35869;50.990;6.962;2023-01-04T15:48:38;0.30;;;0.30;;
49978;SDS011;35869;50.990;6.962;2023-01-04T15:53:39;1.40;;;0.30;;
49978;SDS011;35869;50.990;6.962;2023-01-04T15:58:39;0.30;;;0.30;;
49978;SDS011;35869;50.990;6.962;2023-01-04T16:03:45;0.40;;;0.40;;
49978;SDS011;35869;50.990;6.962;2023-01-04T16:08:47;0.38;;;0.38;;
49978;SDS011;35869;50.990;6.962;2023-01-04T16:13:51;0.70;;;0.70;;
49978;SDS011;35869;50.990;6.962;2023-01-04T16:18:53;0.40;;;0.40;;
49978;SDS011;35869;50.990;6.962;2023-01-04T16:23:55;0.50;;;0.50;;
49978;SDS011;35869;50.990;6.962;2023-01-04T16:28:57;1.83;;;0.80;;
49978;SDS011;35869;50.990;6.962;2023-01-04T16:33:57;4.68;;;3.92;;
49978;SDS011;35869;50.990;6.962;2023-01-04T16:38:58;0.70;;;0.67;;
49978;SDS011;35869;50.990;6.962;2023-01-04T16:44:00;1.55;;;0.80;;
49978;SDS011;35869;50.990;6.962;2023-01-04T16:49:04;1.58;;;0.95;;
49978;SDS011;35869;50.990;6.962;2023-01-04T16:54:08;0.90;;;0.80;;
49978;SDS011;35869;50.990;6.962;2023-01-04T16:59:10;0.90;;;0.90;;
49978;SDS011;35869;50.990;6.962;2023-01-04T17:04:12;1.08;;;0.90;;
49978;SDS011;35869;50.990;6.962;2023-01-04T17:09:14;0.80;;;0.80;;
49978;SDS011;35869;50.990;6.962;2023-01-04T17:14:16;0.85;;;0.60;;
49978;SDS011;35869;50.990;6.962;2023-01-04T17:19:16;2.13;;;0.90;;
49978;SDS011;35869;50.990;6.962;2023-01-04T17:24:16;3.20;;;1.03;;
49978;SDS011;35869;50.990;6.962;2023-01-04T17:29:17;2.80;;;1.33;;
49978;SDS011;35869;50.990;6.962;2023-01-04T17:34:17;4.57;;;1.40;;
49978;SDS011;35869;50.990;6.962;2023-01-04T17:39:17;7.65;;;1.92;;
49978;SDS011;35869;50.990;6.962;2023-01-04T17:44:18;3.83;;;2.28;;
49978;SDS011;35869;50.990;6.962;2023-01-04T17:49:19;8.80;;;2.92;;
49978;SDS011;35869;50.990;6.962;2023-01-04T17:54:19;11.53;;;4.93;;
49978;SDS011;35869;50.990;6.962;2023-01-04T17:59:19;7.45;;;2.85;;
49978;SDS011;35869;50.990;6.962;2023-01-04T18:04:20;8.50;;;3.03;;
49978;SDS011;35869;50.990;6.962;2023-01-04T18:09:20;10.63;;;2.97;;
49978;SDS011;35869;50.990;6.962;2023-01-04T18:14:20;7.35;;;2.58;;
49978;SDS011;35869;50.990;6.962;2023-01-04T18:19:21;6.00;;;2.63;;
49978;SDS011;35869;50.990;6.962;2023-01-04T18:24:22;11.10;;;2.47;;
49978;SDS011;35869;50.990;6.962;2023-01-04T18:29:22;12.30;;;3.90;;
49978;SDS011;35869;50.990;6.962;2023-01-04T18:34:22;9.40;;;3.25;;
49978;SDS011;35869;50.990;6.962;2023-01-04T18:39:23;16.25;;;3.70;;
49978;SDS011;35869;50.990;6.962;2023-01-04T18:44:23;16.10;;;3.80;;
49978;SDS011;35869;50.990;6.962;2023-01-04T18:49:23;17.93;;;4.00;;
49978;SDS011;35869;50.990;6.962;2023-01-04T18:54:23;10.65;;;3.60;;
49978;SDS011;35869;50.990;6.962;2023-01-04T18:59:24;12.23;;;4.15;;
49978;SDS011;35869;50.990;6.962;2023-01-04T19:04:24;9.57;;;4.00;;
49978;SDS011;35869;50.990;6.962;2023-01-04T19:09:24;12.07;;;4.03;;
49978;SDS011;35869;50.990;6.962;2023-01-04T19:14:24;10.57;;;4.28;;
49978;SDS011;35869;50.990;6.962;2023-01-04T19:19:25;12.80;;;4.32;;
49978;SDS011;35869;50.990;6.962;2023-01-04T19:24:25;13.43;;;3.70;;
49978;SDS011;35869;50.990;6.962;2023-01-04T19:29:26;12.50;;;3.95;;
49978;SDS011;35869;50.990;6.962;2023-01-04T19:34:26;12.15;;;4.30;;
49978;SDS011;35869;50.990;6.962;2023-01-04T19:39:26;13.70;;;4.18;;
49978;SDS011;35869;50.990;6.962;2023-01-04T19:44:27;12.77;;;4.47;;
49978;SDS011;35869;50.990;6.962;2023-01-04T19:49:27;10.18;;;4.43;;
49978;SDS011;35869;50.990;6.962;2023-01-04T19:54:27;8.83;;;3.90;;
49978;SDS011;35869;50.990;6.962;2023-01-04T19:59:27;16.20;;;5.30;;
49978;SDS011;35869;50.990;6.962;2023-01-04T20:04:28;15.77;;;5.60;;
49978;SDS011;35869;50.990;6.962;2023-01-04T20:09:28;10.33;;;4.23;;
49978;SDS011;35869;50.990;6.962;2023-01-04T20:14:28;13.57;;;4.35;;
49978;SDS011;35869;50.990;6.962;2023-01-04T20:19:28;11.35;;;4.45;;
49978;SDS011;35869;50.990;6.962;2023-01-04T20:24:29;15.20;;;4.75;;
49978;SDS011;35869;50.990;6.962;2023-01-04T20:29:29;14.00;;;4.13;;
49978;SDS011;35869;50.990;6.962;2023-01-04T20:34:30;16.10;;;3.87;;
49978;SDS011;35869;50.990;6.962;2023-01-04T20:44:31;11.57;;;3.97;;
49978;SDS011;35869;50.990;6.962;2023-01-04T20:49:31;16.17;;;3.92;;
49978;SDS011;35869;50.990;6.962;2023-01-04T20:54:31;11.35;;;4.30;;
49978;SDS011;35869;50.990;6.962;2023-01-04T20:59:32;16.58;;;4.63;;
49978;SDS011;35869;50.990;6.962;2023-01-04T21:04:32;12.27;;;3.83;;
49978;SDS011;35869;50.990;6.962;2023-01-04T21:09:32;17.20;;;5.23;;
49978;SDS011;35869;50.990;6.962;2023-01-04T21:14:32;14.38;;;4.45;;
49978;SDS011;35869;50.990;6.962;2023-01-04T21:19:33;11.70;;;4.57;;
49978;SDS011;35869;50.990;6.962;2023-01-04T21:24:33;10.65;;;3.83;;
49978;SDS011;35869;50.990;6.962;2023-01-04T21:29:33;17.63;;;4.13;;
49978;SDS011;35869;50.990;6.962;2023-01-04T21:34:34;17.80;;;4.40;;
49978;SDS011;35869;50.990;6.962;2023-01-04T21:39:34;12.60;;;4.23;;
49978;SDS011;35869;50.990;6.962;2023-01-04T21:44:34;17.67;;;4.20;;
49978;SDS011;35869;50.990;6.962;2023-01-04T21:49:35;10.02;;;3.55;;
49978;SDS011;35869;50.990;6.962;2023-01-04T21:54:36;11.60;;;3.95;;
49978;SDS011;35869;50.990;6.962;2023-01-04T21:59:36;10.88;;;3.63;;
49978;SDS011;35869;50.990;6.962;2023-01-04T22:04:36;9.77;;;3.38;;
49978;SDS011;35869;50.990;6.962;2023-01-04T22:09:37;13.55;;;3.92;;
49978;SDS011;35869;50.990;6.962;2023-01-04T22:14:37;12.50;;;4.10;;
49978;SDS011;35869;50.990;6.962;2023-01-04T22:19:37;9.15;;;3.42;;
49978;SDS011;35869;50.990;6.962;2023-01-04T22:24:37;15.00;;;4.35;;
49978;SDS011;35869;50.990;6.962;2023-01-04T22:29:38;12.13;;;3.00;;
49978;SDS011;35869;50.990;6.962;2023-01-04T22:34:38;9.70;;;3.47;;
49978;SDS011;35869;50.990;6.962;2023-01-04T22:39:38;13.05;;;3.67;;
49978;SDS011;35869;50.990;6.962;2023-01-04T22:44:38;8.23;;;3.58;;
49978;SDS011;35869;50.990;6.962;2023-01-04T22:49:38;10.93;;;3.90;;
49978;SDS011;35869;50.990;6.962;2023-01-04T22:54:39;12.37;;;3.87;;
49978;SDS011;35869;50.990;6.962;2023-01-04T22:59:39;11.48;;;4.10;;
49978;SDS011;35869;50.990;6.962;2023-01-04T23:04:39;16.95;;;3.40;;
49978;SDS011;35869;50.990;6.962;2023-01-04T23:09:39;12.45;;;3.22;;
49978;SDS011;35869;50.990;6.962;2023-01-04T23:14:40;11.90;;;3.67;;
49978;SDS011;35869;50.990;6.962;2023-01-04T23:19:40;15.43;;;3.92;;
49978;SDS011;35869;50.990;6.962;2023-01-04T23:24:40;14.15;;;3.47;;
49978;SDS011;35869;50.990;6.962;2023-01-04T23:29:40;17.33;;;3.40;;
49978;SDS011;35869;50.990;6.962;2023-01-04T23:34:41;12.25;;;3.50;;
49978;SDS011;35869;50.990;6.962;2023-01-04T23:39:41;11.57;;;3.55;;
49978;SDS011;35869;50.990;6.962;2023-01-04T23:44:41;11.70;;;3.50;;
49978;SDS011;35869;50.990;6.962;2023-01-04T23:49:41;12.75;;;4.07;;
49978;SDS011;35869;50.990;6.962;2023-01-04T23:54:42;10.82;;;3.60;;
49978;SDS011;35869;50.990;6.962;2023-01-04T23:59:42;11.23;;;3.75;;
